Decoded Metar for KOEB (COLDWATER in MI, USA) (IATA:OEB) | Meteo·Mobile Aviation Weather
aviador You're here:

KOEB Decoded Metar

COLDWATER in MI, USA
Report Time2019-01-18 14:15:00
UTC Time2019-01-18 14:36:24
Flight Rules mvfr MVFR
Wind290° at 06 kt
W.Decomp.*RWY 34: 4.2 kt HW 4.2 kt LCW
RWY 25: 4.2 kt HW 4.2 kt RCW
RWY 22: 1.6 kt HW 5.8 kt RCW
W.Rank290° ranks 8
Current wind is below 290° avg. (8.3)
Visibility9999 m
Phenomena:N/A
Clouds:Overcast 023 Hf
Expected CloudBase > 800 ft AGL from Temp-Dew spread
Ceiling2,300 ft
Temp00°C (ISA -13)
Dew Point-2°C (87% RH)
AAT-4.4°C
QNH1020 hPa
Density Alt-801 ft
Elevation958 ft
Report Wrong Elevation
Raw Report
KOEB 181415Z AUTO 29006KT 10SM OVC023 00/M02 A3011 RMK AO2
T10011025=

Extra information for KOEB:More info

Metar Taf Metar & Taf Last 4 Metars F.Rules Stats Wind Profile Meteogram Temp Stats Airport Information Weather charts Add Link Nearby VenuesMetar ALERT Operation Metar Decoded Social comments

AIRNAV info for KOEB